createdAt,value
2023-03-23T00:00:15.486Z,13.64
2023-03-23T00:01:15.487Z,13.49
2023-03-23T00:02:15.455Z,13.46
2023-03-23T00:03:15.443Z,13.42
2023-03-23T00:04:15.429Z,13.45
2023-03-23T00:05:16.445Z,13.33
2023-03-23T00:06:15.471Z,13.26
2023-03-23T00:07:15.392Z,13.42
2023-03-23T00:08:15.378Z,13.33
2023-03-23T00:09:15.401Z,13.33
2023-03-23T00:10:15.373Z,13.29
2023-03-23T00:11:15.363Z,13.28
2023-03-23T00:12:15.338Z,13.30
2023-03-23T00:13:15.328Z,13.45
2023-03-23T00:14:15.353Z,13.42
2023-03-23T00:15:15.327Z,13.46
2023-03-23T00:16:15.294Z,13.48
2023-03-23T00:17:15.291Z,13.45
2023-03-23T00:18:15.295Z,13.46
2023-03-23T00:19:15.267Z,13.49
2023-03-23T00:20:15.258Z,13.59
2023-03-23T00:21:15.325Z,13.52
2023-03-23T00:22:23.804Z,13.48
2023-03-23T00:23:15.252Z,13.51
2023-03-23T00:24:15.206Z,13.52
2023-03-23T00:25:15.219Z,13.48
2023-03-23T00:26:15.202Z,13.44
2023-03-23T00:27:15.182Z,13.45
2023-03-23T00:28:15.182Z,13.49
2023-03-23T00:29:15.146Z,13.48
2023-03-23T00:30:15.145Z,13.51
2023-03-23T00:31:15.137Z,13.45
2023-03-23T00:32:15.119Z,13.52
2023-03-23T00:33:15.134Z,13.48
2023-03-23T00:34:15.109Z,13.57
2023-03-23T00:35:15.104Z,13.49
2023-03-23T00:36:15.086Z,13.55
2023-03-23T00:37:15.134Z,13.54
2023-03-23T00:38:15.081Z,13.57
2023-03-23T00:39:15.062Z,13.60
2023-03-23T00:40:15.070Z,13.51
2023-03-23T00:41:15.021Z,13.55
2023-03-23T00:42:15.011Z,13.67
2023-03-23T00:43:15.024Z,13.64
2023-03-23T00:44:14.990Z,13.51
2023-03-23T00:45:15.971Z,13.55
2023-03-23T00:46:14.999Z,13.48
2023-03-23T00:47:14.946Z,13.39
2023-03-23T00:48:14.944Z,13.29
2023-03-23T00:49:14.963Z,13.25
2023-03-23T00:50:14.930Z,13.19
2023-03-23T00:51:14.931Z,13.17
2023-03-23T00:52:14.933Z,13.08
2023-03-23T00:53:14.906Z,13.04
2023-03-23T00:54:14.900Z,12.92
2023-03-23T00:55:14.864Z,12.95
2023-03-23T00:56:14.919Z,12.77
2023-03-23T00:57:14.855Z,12.78
2023-03-23T00:58:14.877Z,12.75
2023-03-23T00:59:14.838Z,12.72
2023-03-23T01:00:14.815Z,12.74
2023-03-23T01:01:14.823Z,12.78
2023-03-23T01:02:14.819Z,12.78
2023-03-23T01:03:14.803Z,12.79
2023-03-23T01:04:14.770Z,12.82
2023-03-23T01:05:14.751Z,12.87
2023-03-23T01:06:14.740Z,12.89
2023-03-23T01:07:14.728Z,12.89
2023-03-23T01:08:14.737Z,12.85
2023-03-23T01:09:14.727Z,12.85
2023-03-23T01:10:14.693Z,12.79
2023-03-23T01:11:14.684Z,12.75
2023-03-23T01:12:14.697Z,12.65
2023-03-23T01:13:14.693Z,12.68
2023-03-23T01:14:15.024Z,12.65
2023-03-23T01:15:14.644Z,12.70
2023-03-23T01:16:14.645Z,12.62
2023-03-23T01:17:14.647Z,12.64
2023-03-23T01:18:14.636Z,12.52
2023-03-23T01:19:14.633Z,12.60
2023-03-23T01:20:15.636Z,12.45
2023-03-23T01:21:14.591Z,12.45
2023-03-23T01:22:14.567Z,12.59
2023-03-23T01:23:14.573Z,12.59
2023-03-23T01:24:14.550Z,12.53
2023-03-23T01:25:14.619Z,12.49
2023-03-23T01:26:14.520Z,12.49
2023-03-23T01:27:14.570Z,12.45
2023-03-23T01:28:14.538Z,12.42
2023-03-23T01:29:14.587Z,12.47
2023-03-23T01:30:14.492Z,12.42
2023-03-23T01:31:14.657Z,12.34
2023-03-23T01:32:14.448Z,12.45
2023-03-23T01:33:15.020Z,12.34
2023-03-23T01:34:14.434Z,12.29
2023-03-23T01:35:14.514Z,12.27
2023-03-23T01:36:14.642Z,12.28
2023-03-23T01:37:14.629Z,12.20
2023-03-23T01:38:14.518Z,12.23
2023-03-23T01:39:14.374Z,12.24
2023-03-23T01:40:14.438Z,12.10
2023-03-23T01:41:14.392Z,12.10
2023-03-23T01:42:14.999Z,12.16
2023-03-23T01:43:14.510Z,12.05
2023-03-23T01:44:14.369Z,12.16
2023-03-23T01:45:14.352Z,12.12
2023-03-23T01:46:14.293Z,12.12
2023-03-23T01:47:14.286Z,12.05
2023-03-23T01:48:15.004Z,12.10
2023-03-23T01:49:14.455Z,12.13
2023-03-23T01:50:14.423Z,12.05
2023-03-23T01:51:15.001Z,12.09
2023-03-23T01:52:14.471Z,12.09
2023-03-23T01:53:14.221Z,12.04
2023-03-23T01:54:14.326Z,12.05
2023-03-23T01:55:14.297Z,12.04
2023-03-23T01:56:14.534Z,12.12
2023-03-23T01:57:14.350Z,12.05
2023-03-23T01:58:14.529Z,12.07
2023-03-23T01:59:15.016Z,12.14
2023-03-23T02:00:14.424Z,12.12
2023-03-23T02:01:14.185Z,12.05
2023-03-23T02:02:14.159Z,12.10
2023-03-23T02:03:14.403Z,12.04
2023-03-23T02:04:15.088Z,12.01
2023-03-23T02:05:14.521Z,12.05
2023-03-23T02:06:14.469Z,12.13
2023-03-23T02:07:14.117Z,12.10
2023-03-23T02:08:14.059Z,12.04
2023-03-23T02:09:14.056Z,12.10
2023-03-23T02:10:14.040Z,12.07
2023-03-23T02:11:21.955Z,12.09
2023-03-23T02:12:15.003Z,12.07
2023-03-23T02:13:15.037Z,12.14
2023-03-23T02:14:14.302Z,12.20
2023-03-23T02:15:13.979Z,12.23
2023-03-23T02:16:14.516Z,12.24
2023-03-23T02:17:14.342Z,12.27
2023-03-23T02:18:13.993Z,12.32
2023-03-23T02:19:13.946Z,12.29
2023-03-23T02:20:13.944Z,12.34
2023-03-23T02:21:13.980Z,12.29
2023-03-23T02:22:13.915Z,12.34
2023-03-23T02:23:13.917Z,12.29
2023-03-23T02:24:14.056Z,12.32
2023-03-23T02:25:13.879Z,12.37
2023-03-23T02:26:13.850Z,12.34
2023-03-23T02:27:13.835Z,12.38
2023-03-23T02:28:13.863Z,12.49
2023-03-23T02:29:13.829Z,12.45
2023-03-23T02:30:13.804Z,12.52
2023-03-23T02:31:13.799Z,12.60
2023-03-23T02:32:13.986Z,12.57
2023-03-23T02:33:13.782Z,12.65
2023-03-23T02:34:13.787Z,12.64
2023-03-23T02:35:13.764Z,12.56
2023-03-23T02:36:13.737Z,12.57
2023-03-23T02:37:13.725Z,12.62
2023-03-23T02:38:13.724Z,12.53
2023-03-23T02:39:13.723Z,12.54
2023-03-23T02:40:13.733Z,12.64
2023-03-23T02:41:13.674Z,12.64
2023-03-23T02:42:15.548Z,12.71
2023-03-23T02:43:13.655Z,12.74
2023-03-23T02:44:13.675Z,12.70
2023-03-23T02:45:13.679Z,12.70
2023-03-23T02:46:13.622Z,12.72
2023-03-23T02:47:13.637Z,12.82
2023-03-23T02:48:13.609Z,12.71
2023-03-23T02:49:13.587Z,12.74
2023-03-23T02:50:13.588Z,12.68
2023-03-23T02:51:13.594Z,12.70
2023-03-23T02:52:13.598Z,12.74
2023-03-23T02:53:13.550Z,12.72
2023-03-23T02:54:13.538Z,12.74
2023-03-23T02:55:13.549Z,12.71
2023-03-23T02:56:13.538Z,12.70
2023-03-23T02:57:13.501Z,12.77
2023-03-23T02:58:13.510Z,12.72
2023-03-23T02:59:13.492Z,12.79
2023-03-23T03:00:13.470Z,12.68
2023-03-23T03:01:13.481Z,12.65
2023-03-23T03:02:13.479Z,12.54
2023-03-23T03:03:13.449Z,12.56
2023-03-23T03:04:13.551Z,12.46
2023-03-23T03:05:13.407Z,12.37
2023-03-23T03:06:13.404Z,12.29
2023-03-23T03:07:13.405Z,12.29
2023-03-23T03:08:13.411Z,12.19
2023-03-23T03:09:13.362Z,12.17
2023-03-23T03:10:13.354Z,12.12
2023-03-23T03:11:13.370Z,12.04
2023-03-23T03:12:13.345Z,12.01
2023-03-23T03:13:13.327Z,12.02
2023-03-23T03:14:13.418Z,11.98
2023-03-23T03:15:13.296Z,11.94
2023-03-23T03:16:13.307Z,11.83
2023-03-23T03:17:13.295Z,11.86
2023-03-23T03:18:13.272Z,11.88
2023-03-23T03:19:13.282Z,11.80
2023-03-23T03:20:13.248Z,11.75
2023-03-23T03:21:13.294Z,11.55
2023-03-23T03:22:13.220Z,11.61
2023-03-23T03:23:13.217Z,11.62
2023-03-23T03:24:13.224Z,11.55
2023-03-23T03:25:18.792Z,11.57
2023-03-23T03:26:15.027Z,11.64
2023-03-23T03:27:13.165Z,11.49
2023-03-23T03:28:13.156Z,11.49
2023-03-23T03:29:13.158Z,11.44
2023-03-23T03:30:13.147Z,11.51
2023-03-23T03:31:13.116Z,11.46
2023-03-23T03:32:13.114Z,11.52
2023-03-23T03:33:13.148Z,11.40
2023-03-23T03:34:13.120Z,11.42
2023-03-23T03:35:13.107Z,11.43
2023-03-23T03:36:13.138Z,11.43
2023-03-23T03:37:13.053Z,11.42
2023-03-23T03:38:13.055Z,11.40
2023-03-23T03:39:13.033Z,11.36
2023-03-23T03:40:13.062Z,11.35
2023-03-23T03:41:13.042Z,11.39
2023-03-23T03:42:13.000Z,11.37
2023-03-23T03:43:12.987Z,11.25
2023-03-23T03:44:13.008Z,11.27
2023-03-23T03:45:12.989Z,11.27
2023-03-23T03:46:12.989Z,11.33
2023-03-23T03:47:12.952Z,11.28
2023-03-23T03:48:12.966Z,11.33
2023-03-23T03:49:13.085Z,11.25
2023-03-23T03:50:12.934Z,11.27
2023-03-23T03:51:12.907Z,11.25
2023-03-23T03:52:12.894Z,11.25
2023-03-23T03:53:12.876Z,11.32
2023-03-23T03:54:12.886Z,11.28
2023-03-23T03:55:12.863Z,11.21
2023-03-23T03:56:12.851Z,11.18
2023-03-23T03:57:12.842Z,11.11
2023-03-23T03:58:12.836Z,11.14
2023-03-23T03:59:21.317Z,11.21
2023-03-23T04:00:13.802Z,11.18
2023-03-23T04:01:12.821Z,11.15
2023-03-23T04:02:12.776Z,11.10
2023-03-23T04:03:12.767Z,11.18
2023-03-23T04:04:12.782Z,11.11
2023-03-23T04:05:12.756Z,11.11
2023-03-23T04:06:12.737Z,11.10
2023-03-23T04:07:12.734Z,11.07
2023-03-23T04:08:12.738Z,11.15
2023-03-23T04:09:12.704Z,11.17
2023-03-23T04:10:12.716Z,11.10
2023-03-23T04:11:33.179Z,11.15
2023-03-23T04:12:13.672Z,11.14
2023-03-23T04:13:12.698Z,11.11
2023-03-23T04:14:12.655Z,11.07
2023-03-23T04:15:12.663Z,11.07
2023-03-23T04:16:12.626Z,10.94
2023-03-23T04:17:12.609Z,11.06
2023-03-23T04:18:12.614Z,10.99
2023-03-23T04:19:13.026Z,10.84
2023-03-23T04:20:12.588Z,10.92
2023-03-23T04:21:12.611Z,10.85
2023-03-23T04:22:12.555Z,10.88
2023-03-23T04:23:12.542Z,10.81
2023-03-23T04:24:23.228Z,10.84
2023-03-23T04:25:13.539Z,10.84
2023-03-23T04:26:12.560Z,10.71
2023-03-23T04:27:12.500Z,10.79
2023-03-23T04:28:12.489Z,10.70
2023-03-23T04:29:12.475Z,10.78
2023-03-23T04:30:12.458Z,10.74
2023-03-23T04:31:12.480Z,10.71
2023-03-23T04:32:12.461Z,10.79
2023-03-23T04:33:12.464Z,10.67
2023-03-23T04:34:13.441Z,10.68
2023-03-23T04:35:14.192Z,10.68
2023-03-23T04:36:12.431Z,10.64
2023-03-23T04:37:12.427Z,10.67
2023-03-23T04:38:12.373Z,10.56
2023-03-23T04:39:12.402Z,10.63
2023-03-23T04:40:12.349Z,10.64
2023-03-23T04:41:12.356Z,10.59
2023-03-23T04:42:12.332Z,10.63
2023-03-23T04:43:12.361Z,10.63
2023-03-23T04:44:12.304Z,10.60
2023-03-23T04:45:12.301Z,10.53
2023-03-23T04:46:12.297Z,10.56
2023-03-23T04:47:12.272Z,10.56
2023-03-23T04:48:12.270Z,10.61
2023-03-23T04:49:12.261Z,10.60
2023-03-23T04:50:12.269Z,10.63
2023-03-23T04:51:12.239Z,10.61
2023-03-23T04:52:12.242Z,10.67
2023-03-23T04:53:12.245Z,10.63
2023-03-23T04:54:12.209Z,10.63
2023-03-23T04:55:12.200Z,10.55
2023-03-23T04:56:12.222Z,10.63
2023-03-23T04:57:12.234Z,10.51
2023-03-23T04:58:12.167Z,10.52
2023-03-23T04:59:12.149Z,10.55
2023-03-23T05:00:12.133Z,10.55
2023-03-23T05:01:12.141Z,10.51
2023-03-23T05:02:14.579Z,10.47
2023-03-23T05:03:12.140Z,10.56
2023-03-23T05:04:12.078Z,10.44
2023-03-23T05:05:12.070Z,10.45
2023-03-23T05:06:12.089Z,10.47
2023-03-23T05:07:12.045Z,10.44
2023-03-23T05:08:12.037Z,10.47
2023-03-23T05:09:12.052Z,10.52
2023-03-23T05:10:12.040Z,10.55
2023-03-23T05:11:13.044Z,10.52
2023-03-23T05:12:12.011Z,10.48
2023-03-23T05:13:11.990Z,10.52
2023-03-23T05:14:11.964Z,10.45
2023-03-23T05:15:11.966Z,10.41
2023-03-23T05:16:11.977Z,10.45
2023-03-23T05:17:11.959Z,10.30
2023-03-23T05:18:11.927Z,10.45
2023-03-23T05:19:11.918Z,10.47
2023-03-23T05:20:11.958Z,10.42
2023-03-23T05:21:11.887Z,10.40
2023-03-23T05:22:11.881Z,10.42
2023-03-23T05:23:11.885Z,10.29
2023-03-23T05:24:11.857Z,10.40
2023-03-23T05:25:11.900Z,10.40
2023-03-23T05:26:11.848Z,10.40
2023-03-23T05:27:11.824Z,10.42
2023-03-23T05:28:11.813Z,10.41
2023-03-23T05:29:11.797Z,10.40
2023-03-23T05:30:11.819Z,10.41
2023-03-23T05:31:11.776Z,10.38
2023-03-23T05:32:11.771Z,10.34
2023-03-23T05:33:11.781Z,10.42
2023-03-23T05:34:11.769Z,10.34
2023-03-23T05:35:11.767Z,10.34
2023-03-23T05:36:11.730Z,10.32
2023-03-23T05:37:11.712Z,10.41
2023-03-23T05:38:11.723Z,10.32
2023-03-23T05:39:11.706Z,10.41
2023-03-23T05:40:11.691Z,10.36
2023-03-23T05:41:11.706Z,10.26
2023-03-23T05:42:11.659Z,10.34
2023-03-23T05:43:11.650Z,10.38
2023-03-23T05:44:11.632Z,10.22
2023-03-23T05:45:11.620Z,10.26
2023-03-23T05:46:11.607Z,10.32
2023-03-23T05:47:11.614Z,10.25
2023-03-23T05:48:11.607Z,10.18
2023-03-23T05:49:11.587Z,10.29
2023-03-23T05:50:11.564Z,10.25
2023-03-23T05:51:11.561Z,10.29
2023-03-23T05:52:11.536Z,10.38
2023-03-23T05:53:12.618Z,10.34
2023-03-23T05:54:11.519Z,10.38
2023-03-23T05:55:11.505Z,10.36
2023-03-23T05:56:11.489Z,10.33
2023-03-23T05:57:11.502Z,10.29
2023-03-23T05:58:11.511Z,10.33
2023-03-23T05:59:11.465Z,10.41
2023-03-23T06:00:11.455Z,10.38
2023-03-23T06:01:11.459Z,10.41
2023-03-23T06:02:12.427Z,10.38
2023-03-23T06:03:11.455Z,10.32
2023-03-23T06:04:11.416Z,10.47
2023-03-23T06:05:11.395Z,10.40
2023-03-23T06:06:11.516Z,10.40
2023-03-23T06:07:11.381Z,10.41
2023-03-23T06:08:11.370Z,10.38
2023-03-23T06:09:11.375Z,10.47
2023-03-23T06:10:11.331Z,10.44
2023-03-23T06:11:11.327Z,10.48
2023-03-23T06:12:11.315Z,10.51
2023-03-23T06:13:11.329Z,10.52
2023-03-23T06:14:12.305Z,10.48
2023-03-23T06:15:11.277Z,10.51
2023-03-23T06:16:11.270Z,10.52
2023-03-23T06:17:11.280Z,10.55
2023-03-23T06:18:11.244Z,10.53
2023-03-23T06:19:11.244Z,10.64
2023-03-23T06:20:11.221Z,10.64
2023-03-23T06:21:11.321Z,10.64
2023-03-23T06:23:21.979Z,10.67
2023-03-23T06:24:21.967Z,10.82
2023-03-23T06:25:21.964Z,10.71
2023-03-23T06:26:21.967Z,10.71
2023-03-23T06:27:21.941Z,10.76
2023-03-23T06:28:21.952Z,10.74
2023-03-23T06:29:21.938Z,10.79
2023-03-23T06:30:21.942Z,10.81
2023-03-23T06:31:21.909Z,10.81
2023-03-23T06:32:21.910Z,10.85
2023-03-23T06:33:21.913Z,10.99
2023-03-23T06:34:21.858Z,10.97
2023-03-23T06:35:21.882Z,10.99
2023-03-23T06:36:21.866Z,11.03
2023-03-23T06:37:21.819Z,11.03
2023-03-23T06:38:23.249Z,11.06
2023-03-23T06:39:21.838Z,11.17
2023-03-23T06:40:21.801Z,11.22
2023-03-23T06:41:21.782Z,11.22
2023-03-23T06:42:21.810Z,11.28
2023-03-23T06:43:21.763Z,11.28
2023-03-23T06:44:21.796Z,11.29
2023-03-23T06:45:21.746Z,11.35
2023-03-23T06:46:21.729Z,11.35
2023-03-23T06:47:21.748Z,11.32
2023-03-23T06:48:21.708Z,11.21
2023-03-23T06:49:22.222Z,11.37
2023-03-23T06:50:21.721Z,11.43
2023-03-23T06:51:21.674Z,11.33
2023-03-23T06:52:21.690Z,11.39
2023-03-23T06:53:21.670Z,11.42
2023-03-23T06:54:21.638Z,11.39
2023-03-23T06:55:21.641Z,11.40
2023-03-23T06:56:21.613Z,11.46
2023-03-23T06:57:21.609Z,11.54
2023-03-23T06:58:21.622Z,11.52
2023-03-23T06:59:21.584Z,11.55
2023-03-23T07:00:21.618Z,11.61
2023-03-23T07:01:21.568Z,11.67
2023-03-23T07:02:21.616Z,11.80
2023-03-23T07:03:21.550Z,11.86
2023-03-23T07:04:21.536Z,12.04
2023-03-23T07:05:21.533Z,12.04
2023-03-23T07:06:21.522Z,12.13
2023-03-23T07:07:21.514Z,12.14
2023-03-23T07:08:21.483Z,12.27
2023-03-23T07:09:25.610Z,12.32
2023-03-23T07:10:22.538Z,12.29
2023-03-23T07:11:21.487Z,12.31
2023-03-23T07:12:21.439Z,12.27
2023-03-23T07:13:21.453Z,12.14
2023-03-23T07:14:21.413Z,12.12
2023-03-23T07:15:21.407Z,12.12
2023-03-23T07:16:21.448Z,12.09
2023-03-23T07:17:21.410Z,12.09
2023-03-23T07:18:21.377Z,12.09
2023-03-23T07:19:21.358Z,12.09
2023-03-23T07:20:21.430Z,12.07
2023-03-23T07:21:21.343Z,12.17
2023-03-23T07:22:22.232Z,12.16
2023-03-23T07:23:21.343Z,12.14
2023-03-23T07:24:21.443Z,12.13
2023-03-23T07:25:21.292Z,12.14
2023-03-23T07:26:21.280Z,12.13
2023-03-23T07:27:21.303Z,12.09
2023-03-23T07:28:21.291Z,12.07
2023-03-23T07:29:21.291Z,12.05
2023-03-23T07:30:21.296Z,12.13
2023-03-23T07:31:21.287Z,12.04
2023-03-23T07:32:21.239Z,12.05
2023-03-23T07:33:21.210Z,11.99
2023-03-23T07:34:21.269Z,12.07
2023-03-23T07:35:21.188Z,11.98
2023-03-23T07:36:21.192Z,12.05
2023-03-23T07:37:21.201Z,12.16
2023-03-23T07:38:21.165Z,12.27
2023-03-23T07:39:21.127Z,12.23
2023-03-23T07:40:21.130Z,12.31
2023-03-23T07:41:21.146Z,12.38
2023-03-23T07:42:21.170Z,12.38
2023-03-23T07:43:21.094Z,12.28
2023-03-23T07:44:21.108Z,12.35
2023-03-23T07:45:21.111Z,12.37
2023-03-23T07:46:21.091Z,12.29
2023-03-23T07:47:21.066Z,12.42
2023-03-23T07:48:22.183Z,12.52
2023-03-23T07:49:21.029Z,12.54
2023-03-23T07:50:21.013Z,12.56
2023-03-23T07:51:21.011Z,12.54
2023-03-23T07:52:21.141Z,12.62
2023-03-23T07:53:21.036Z,12.54
2023-03-23T07:54:20.964Z,12.72
2023-03-23T07:55:20.967Z,12.74
2023-03-23T07:56:20.942Z,12.82
2023-03-23T07:57:21.009Z,12.97
2023-03-23T07:58:20.932Z,12.97
2023-03-23T07:59:20.909Z,13.15
2023-03-23T08:00:20.902Z,13.26
2023-03-23T08:01:20.915Z,13.32
2023-03-23T08:02:20.923Z,13.42
2023-03-23T08:03:21.169Z,13.48
2023-03-23T08:04:20.909Z,13.41
2023-03-23T08:05:20.841Z,13.54
2023-03-23T08:06:20.832Z,13.55
2023-03-23T08:07:20.825Z,13.59
2023-03-23T08:08:20.822Z,13.71
2023-03-23T08:09:20.824Z,13.51
2023-03-23T08:10:20.786Z,13.52
2023-03-23T08:11:20.773Z,13.54
2023-03-23T08:12:20.775Z,13.59
2023-03-23T08:13:20.796Z,13.62
2023-03-23T08:14:21.956Z,13.66
2023-03-23T08:15:20.760Z,13.73
2023-03-23T08:16:20.715Z,13.89
2023-03-23T08:17:20.704Z,13.96
2023-03-23T08:18:20.713Z,14.00
2023-03-23T08:19:20.709Z,14.15
2023-03-23T08:20:20.718Z,14.15
2023-03-23T08:21:20.659Z,14.00
2023-03-23T08:22:20.645Z,14.07
2023-03-23T08:23:20.653Z,14.17
2023-03-23T08:24:20.668Z,14.21
2023-03-23T08:25:20.621Z,14.12
2023-03-23T08:26:20.632Z,14.10
2023-03-23T08:27:20.648Z,14.07
2023-03-23T08:28:20.599Z,14.00
2023-03-23T08:29:20.594Z,13.88
2023-03-23T08:30:20.562Z,13.82
2023-03-23T08:31:20.568Z,13.79
2023-03-23T08:32:20.537Z,13.81
2023-03-23T08:33:20.538Z,13.84
2023-03-23T08:34:20.529Z,13.69
2023-03-23T08:35:20.499Z,13.67
2023-03-23T08:36:20.583Z,13.66
2023-03-23T08:37:20.483Z,13.69
2023-03-23T08:38:20.468Z,13.73
2023-03-23T08:39:20.523Z,13.69
2023-03-23T08:40:20.503Z,13.63
2023-03-23T08:41:20.433Z,13.70
2023-03-23T08:42:20.420Z,13.71
2023-03-23T08:43:20.437Z,13.82
2023-03-23T08:44:20.409Z,13.88
2023-03-23T08:45:20.401Z,13.95
2023-03-23T08:46:20.409Z,14.07
2023-03-23T08:47:21.175Z,13.95
2023-03-23T08:48:20.403Z,14.00
2023-03-23T08:49:20.367Z,14.02
2023-03-23T08:50:20.333Z,13.95
2023-03-23T08:51:20.363Z,14.07
2023-03-23T08:52:20.404Z,14.17
2023-03-23T08:53:20.297Z,14.15
2023-03-23T08:54:20.321Z,14.28
2023-03-23T08:55:21.359Z,14.32
2023-03-23T08:56:20.282Z,14.28
2023-03-23T08:57:20.272Z,14.27
2023-03-23T08:58:20.281Z,14.29
2023-03-23T08:59:20.306Z,14.39
2023-03-23T09:00:20.221Z,14.42
2023-03-23T09:01:20.269Z,14.40
2023-03-23T09:02:20.200Z,14.37
2023-03-23T09:03:20.205Z,14.40
2023-03-23T09:04:20.188Z,14.39
2023-03-23T09:05:20.197Z,14.25
2023-03-23T09:06:20.153Z,14.35
2023-03-23T09:07:20.153Z,14.29
2023-03-23T09:08:20.154Z,14.37
2023-03-23T09:09:20.120Z,14.42
2023-03-23T09:10:20.158Z,14.50
2023-03-23T09:11:20.117Z,14.50
2023-03-23T09:12:20.089Z,14.58
2023-03-23T09:13:20.101Z,14.57
2023-03-23T09:14:20.066Z,14.50
2023-03-23T09:15:23.954Z,14.42
2023-03-23T09:16:21.094Z,14.39
2023-03-23T09:17:20.047Z,14.32
2023-03-23T09:18:20.026Z,14.35
2023-03-23T09:19:20.033Z,14.47
2023-03-23T09:20:20.007Z,14.46
2023-03-23T09:21:20.039Z,14.61
2023-03-23T09:22:20.000Z,14.62
2023-03-23T09:23:20.990Z,14.75
2023-03-23T09:24:20.033Z,14.81
2023-03-23T09:25:19.982Z,14.81
2023-03-23T09:26:19.940Z,14.81
2023-03-23T09:27:19.943Z,14.73
2023-03-23T09:28:19.921Z,14.70
2023-03-23T09:29:19.907Z,14.78
2023-03-23T09:30:19.935Z,14.95
2023-03-23T09:31:20.889Z,14.89
2023-03-23T09:32:19.873Z,14.89
2023-03-23T09:33:19.873Z,14.88
2023-03-23T09:34:19.867Z,14.92
2023-03-23T09:35:19.838Z,14.86
2023-03-23T09:36:19.871Z,14.94
2023-03-23T09:37:19.832Z,14.99
2023-03-23T09:38:19.807Z,15.06
2023-03-23T09:39:19.846Z,15.07
2023-03-23T09:40:19.838Z,15.03
2023-03-23T09:41:19.792Z,14.92
2023-03-23T09:42:19.817Z,14.80
2023-03-23T09:43:19.786Z,14.62
2023-03-23T09:44:19.743Z,14.62
2023-03-23T09:45:19.753Z,14.77
2023-03-23T09:46:19.704Z,14.86
2023-03-23T09:47:19.732Z,14.80
2023-03-23T09:48:19.689Z,14.78
2023-03-23T09:49:19.683Z,14.72
2023-03-23T09:50:19.668Z,14.64
2023-03-23T09:51:19.675Z,14.62
2023-03-23T09:52:19.677Z,14.62
2023-03-23T09:53:20.518Z,14.69
2023-03-23T09:54:19.632Z,14.61
2023-03-23T09:55:19.634Z,14.60
2023-03-23T09:56:19.637Z,14.46
2023-03-23T09:57:19.590Z,14.60
2023-03-23T09:58:19.641Z,14.68
2023-03-23T09:59:19.565Z,14.65
2023-03-23T10:00:19.582Z,14.77
2023-03-23T10:01:19.550Z,14.68
2023-03-23T10:02:19.539Z,14.65
2023-03-23T10:03:19.553Z,14.70
2023-03-23T10:04:19.508Z,14.51
2023-03-23T10:05:19.506Z,14.61
2023-03-23T10:06:19.508Z,14.73
2023-03-23T10:07:19.512Z,14.70
2023-03-23T10:08:19.485Z,14.70
2023-03-23T10:09:19.457Z,14.72
2023-03-23T10:10:19.448Z,14.72
2023-03-23T10:11:19.471Z,14.72
2023-03-23T10:12:19.485Z,14.65
2023-03-23T10:13:19.429Z,14.58
2023-03-23T10:14:19.484Z,14.62
2023-03-23T10:15:19.418Z,14.61
2023-03-23T10:16:19.410Z,14.62
2023-03-23T10:17:19.441Z,14.68
2023-03-23T10:18:19.401Z,14.81
2023-03-23T10:19:19.386Z,14.77
2023-03-23T10:20:19.335Z,14.94
2023-03-23T10:21:19.364Z,14.99
2023-03-23T10:22:19.315Z,15.03
2023-03-23T10:23:19.313Z,15.02
2023-03-23T10:24:19.315Z,15.07
2023-03-23T10:25:19.294Z,15.11
2023-03-23T10:26:19.266Z,15.19
2023-03-23T10:27:19.285Z,15.19
2023-03-23T10:28:19.328Z,15.17
2023-03-23T10:29:19.274Z,15.17
2023-03-23T10:30:19.240Z,15.06
2023-03-23T10:31:19.249Z,14.98
2023-03-23T10:32:19.203Z,14.91
2023-03-23T10:33:19.219Z,14.92
2023-03-23T10:34:19.184Z,14.96
2023-03-23T10:35:19.177Z,14.86
2023-03-23T10:36:19.201Z,14.95
2023-03-23T10:37:19.187Z,14.89
2023-03-23T10:38:19.155Z,15.02
2023-03-23T10:39:19.124Z,14.92
2023-03-23T10:40:19.112Z,14.89
2023-03-23T10:41:19.128Z,14.99
2023-03-23T10:42:19.096Z,15.02
2023-03-23T10:43:19.125Z,14.96
2023-03-23T10:44:19.120Z,15.07
2023-03-23T10:45:19.091Z,15.21
2023-03-23T10:46:31.483Z,15.23
2023-03-23T10:47:20.064Z,15.27
2023-03-23T10:48:19.049Z,15.39
2023-03-23T10:49:19.041Z,15.39
2023-03-23T10:50:19.030Z,15.31
2023-03-23T10:51:19.001Z,15.44
2023-03-23T10:52:19.021Z,15.65
2023-03-23T10:53:18.979Z,15.67
2023-03-23T10:54:18.956Z,15.75
2023-03-23T10:55:18.990Z,15.93
2023-03-23T10:56:18.935Z,16.07
2023-03-23T10:57:18.963Z,16.25
2023-03-23T10:58:18.929Z,15.97
2023-03-23T10:59:18.935Z,16.02
2023-03-23T11:00:18.923Z,15.92
2023-03-23T11:01:18.880Z,15.86
2023-03-23T11:02:29.202Z,15.92
2023-03-23T11:03:19.870Z,15.90
2023-03-23T11:04:18.849Z,15.92
2023-03-23T11:05:20.370Z,15.84
2023-03-23T11:06:18.836Z,16.01
2023-03-23T11:07:18.817Z,16.17
2023-03-23T11:08:18.879Z,16.31
2023-03-23T11:09:18.790Z,16.33
2023-03-23T11:10:18.812Z,16.38
2023-03-23T11:11:18.777Z,16.24
2023-03-23T11:12:19.478Z,16.09
2023-03-23T11:13:18.747Z,16.01
2023-03-23T11:14:18.735Z,15.97
2023-03-23T11:15:18.764Z,15.97
2023-03-23T11:16:18.734Z,16.04
2023-03-23T11:17:18.700Z,16.07
2023-03-23T11:18:18.695Z,15.94
2023-03-23T11:19:18.687Z,15.96
2023-03-23T11:20:18.696Z,15.93
2023-03-23T11:21:18.659Z,15.72
2023-03-23T11:22:18.662Z,15.74
2023-03-23T11:23:18.645Z,15.78
2023-03-23T11:24:18.628Z,15.94
2023-03-23T11:25:18.997Z,16.08
2023-03-23T11:26:18.605Z,16.04
2023-03-23T11:27:18.601Z,15.86
2023-03-23T11:28:18.622Z,15.67
2023-03-23T11:29:18.573Z,15.78
2023-03-23T11:30:18.557Z,15.59
2023-03-23T11:31:18.564Z,15.59
2023-03-23T11:32:18.554Z,15.64
2023-03-23T11:33:18.537Z,15.67
2023-03-23T11:34:18.511Z,15.80
2023-03-23T11:35:18.501Z,15.92
2023-03-23T11:36:18.530Z,15.94
2023-03-23T11:37:18.498Z,16.09
2023-03-23T11:38:18.505Z,16.25
2023-03-23T11:39:18.477Z,16.38
2023-03-23T11:40:18.462Z,16.48
2023-03-23T11:41:18.435Z,16.46
2023-03-23T11:42:18.433Z,16.41
2023-03-23T11:43:18.405Z,16.46
2023-03-23T11:44:18.421Z,16.49
2023-03-23T11:45:18.389Z,16.28
2023-03-23T11:46:18.408Z,16.30
2023-03-23T11:47:18.429Z,16.31
2023-03-23T11:48:18.410Z,16.42
2023-03-23T11:49:25.407Z,16.43
2023-03-23T11:50:19.331Z,16.46
2023-03-23T11:51:18.320Z,16.34
2023-03-23T11:52:18.331Z,16.42
2023-03-23T11:53:18.299Z,16.49
2023-03-23T11:54:18.323Z,16.42
2023-03-23T11:55:18.315Z,16.61
2023-03-23T11:56:18.277Z,16.64
2023-03-23T11:57:18.251Z,16.61
2023-03-23T11:58:18.245Z,16.76
2023-03-23T11:59:18.262Z,16.88
2023-03-23T12:00:18.255Z,16.70
2023-03-23T12:01:19.517Z,16.67
2023-03-23T12:02:18.239Z,16.63
2023-03-23T12:03:18.190Z,16.60
2023-03-23T12:04:18.201Z,16.75
2023-03-23T12:05:18.181Z,16.68
2023-03-23T12:06:18.184Z,16.76
2023-03-23T12:07:18.177Z,16.85
2023-03-23T12:09:18.120Z,16.98
2023-03-23T12:10:25.403Z,17.41
2023-03-23T12:11:19.172Z,17.71
2023-03-23T12:12:18.110Z,17.93
2023-03-23T12:13:21.098Z,17.92
2023-03-23T12:14:18.229Z,18.14
2023-03-23T12:15:18.056Z,18.02
2023-03-23T12:16:18.043Z,17.93
2023-03-23T12:17:18.049Z,17.62
2023-03-23T12:18:18.060Z,17.56
2023-03-23T12:19:18.006Z,17.54
2023-03-23T12:20:18.015Z,17.43
2023-03-23T12:21:17.993Z,17.37
2023-03-23T12:22:26.081Z,17.30
2023-03-23T12:23:17.994Z,17.07
2023-03-23T12:24:18.092Z,17.28
2023-03-23T12:25:17.979Z,17.19
2023-03-23T12:26:17.954Z,16.97
2023-03-23T12:27:17.946Z,17.03
2023-03-23T12:28:17.946Z,17.14
2023-03-23T12:29:17.957Z,17.22
2023-03-23T12:30:17.906Z,17.30
2023-03-23T12:31:17.883Z,17.30
2023-03-23T12:32:17.907Z,17.19
2023-03-23T12:33:17.911Z,17.06
2023-03-23T12:34:17.864Z,17.18
2023-03-23T12:35:17.843Z,17.07
2023-03-23T12:36:17.942Z,16.94
2023-03-23T12:37:17.833Z,16.85
2023-03-23T12:38:17.807Z,16.57
2023-03-23T12:39:17.793Z,16.48
2023-03-23T12:40:17.776Z,16.48
2023-03-23T12:41:17.767Z,16.48
2023-03-23T12:42:17.816Z,16.52
2023-03-23T12:43:17.749Z,16.48
2023-03-23T12:44:17.736Z,16.42
2023-03-23T12:45:17.735Z,16.42
2023-03-23T12:46:17.822Z,16.46
2023-03-23T12:47:17.739Z,16.42
2023-03-23T12:48:17.712Z,16.35
2023-03-23T12:49:17.714Z,16.27
2023-03-23T12:50:17.680Z,16.24
2023-03-23T12:51:17.700Z,16.43
2023-03-23T12:52:17.686Z,16.57
2023-03-23T12:53:17.665Z,16.60
2023-03-23T12:54:17.623Z,16.64